createdAt,value
2019-02-19T00:03:58.508Z,99.90
2019-02-19T00:09:26.164Z,99.90
2019-02-19T00:14:43.027Z,99.90
2019-02-19T00:17:31.343Z,99.90
2019-02-19T00:20:15.768Z,99.90
2019-02-19T00:25:32.729Z,99.90
2019-02-19T00:28:20.924Z,99.90
2019-02-19T00:30:49.976Z,99.90
2019-02-19T00:33:18.845Z,99.90
2019-02-19T00:36:00.153Z,99.90
2019-02-19T00:41:32.254Z,99.90
2019-02-19T00:47:05.043Z,99.90
2019-02-19T00:49:46.546Z,99.90
2019-02-19T00:52:30.097Z,99.90
2019-02-19T00:54:59.179Z,99.90
2019-02-19T00:57:28.320Z,99.90
2019-02-19T01:00:16.639Z,99.90
2019-02-19T01:03:04.756Z,99.90
2019-02-19T01:08:33.398Z,99.90
2019-02-19T01:11:13.821Z,99.90
2019-02-19T01:13:57.604Z,99.90
2019-02-19T01:16:26.712Z,99.90
2019-02-19T01:18:55.696Z,99.90
2019-02-19T01:21:43.973Z,99.90
2019-02-19T01:24:32.228Z,99.90
2019-02-19T01:27:16.343Z,99.90
2019-02-19T01:32:48.040Z,99.90
2019-02-19T01:38:20.085Z,99.90
2019-02-19T01:43:49.616Z,99.90
2019-02-19T01:49:18.273Z,99.90
2019-02-19T01:51:59.665Z,99.90
2019-02-19T01:54:40.544Z,99.90
2019-02-19T01:57:21.148Z,99.90
2019-02-19T02:02:35.982Z,99.90
2019-02-19T02:05:24.390Z,99.90
2019-02-19T02:08:12.993Z,99.90
2019-02-19T02:10:57.250Z,99.90
2019-02-19T02:16:27.751Z,99.90
2019-02-19T02:24:55.752Z,99.90
2019-02-19T02:30:26.506Z,99.90
2019-02-19T02:35:58.942Z,99.90
2019-02-19T02:38:40.393Z,99.90
2019-02-19T02:41:21.096Z,99.90
2019-02-19T02:44:01.797Z,99.90
2019-02-19T02:46:45.462Z,99.90
2019-02-19T02:49:14.540Z,99.90
2019-02-19T02:52:02.766Z,99.90
2019-02-19T02:54:51.091Z,99.90
2019-02-19T03:00:12.178Z,99.90
2019-02-19T03:02:56.239Z,99.90
2019-02-19T03:08:21.761Z,99.90
2019-02-19T03:13:38.907Z,99.90
2019-02-19T03:16:27.281Z,99.90
2019-02-19T03:19:08.307Z,99.90
2019-02-19T03:24:37.381Z,99.90
2019-02-19T03:30:06.176Z,99.90
2019-02-19T03:32:47.383Z,99.90
2019-02-19T03:35:31.797Z,99.90
2019-02-19T03:38:13.040Z,99.90
2019-02-19T03:40:56.688Z,99.90
2019-02-19T03:46:30.463Z,99.90
2019-02-19T03:51:58.813Z,99.90
2019-02-19T03:54:39.811Z,99.90
2019-02-19T03:57:21.681Z,99.90
2019-02-19T03:59:50.824Z,99.90
2019-02-19T04:02:39.195Z,99.90
2019-02-19T04:05:08.371Z,99.90
2019-02-19T04:07:37.461Z,99.90
2019-02-19T04:10:25.725Z,99.90
2019-02-19T04:15:54.292Z,99.90
2019-02-19T04:21:22.837Z,99.90
2019-02-19T04:29:46.890Z,99.90
2019-02-19T04:32:28.009Z,99.90
2019-02-19T04:43:32.416Z,99.90
2019-02-19T04:46:16.831Z,99.90
2019-02-19T04:48:57.333Z,99.90
2019-02-19T04:51:41.401Z,99.90
2019-02-19T04:54:10.481Z,99.90
2019-02-19T04:56:58.742Z,99.90
2019-02-19T04:59:46.999Z,99.90
2019-02-19T05:02:35.214Z,99.90
2019-02-19T05:05:16.576Z,99.90
2019-02-19T05:08:00.303Z,99.90
2019-02-19T05:10:40.920Z,99.90
2019-02-19T05:16:19.824Z,99.90
2019-02-19T05:21:51.538Z,99.90
2019-02-19T05:27:08.541Z,99.90
2019-02-19T05:29:56.645Z,99.90
2019-02-19T05:32:37.481Z,99.90
2019-02-19T05:38:05.421Z,99.90
2019-02-19T05:43:37.324Z,99.90
2019-02-19T05:46:06.444Z,99.90
2019-02-19T05:48:54.709Z,99.90
2019-02-19T05:51:42.931Z,99.90
2019-02-19T05:54:26.760Z,99.90
2019-02-19T05:59:52.168Z,99.90
2019-02-19T06:05:24.028Z,99.90
2019-02-19T06:10:56.655Z,99.90
2019-02-19T06:16:24.394Z,99.90
2019-02-19T06:18:53.492Z,99.90
2019-02-19T06:21:41.836Z,99.90
2019-02-19T06:24:30.075Z,99.90
2019-02-19T06:27:14.077Z,99.90
2019-02-19T06:29:54.825Z,99.90
2019-02-19T06:32:39.320Z,99.90
2019-02-19T06:35:20.027Z,99.90
2019-02-19T06:38:00.777Z,99.90
2019-02-19T06:43:33.016Z,99.90
2019-02-19T06:49:00.741Z,99.90
2019-02-19T06:51:41.278Z,99.90
2019-02-19T06:54:22.537Z,99.90
2019-02-19T06:57:07.361Z,99.90
2019-02-19T06:59:51.047Z,99.90
2019-02-19T07:05:52.026Z,99.90
2019-02-19T07:11:23.569Z,99.90
2019-02-19T07:16:55.680Z,99.90
2019-02-19T07:19:36.495Z,99.90
2019-02-19T07:22:20.105Z,99.90
2019-02-19T07:27:52.450Z,99.90
2019-02-19T07:33:24.137Z,99.90
2019-02-19T07:35:53.301Z,99.90
2019-02-19T07:38:41.604Z,99.90
2019-02-19T07:41:26.102Z,99.90
2019-02-19T07:44:10.511Z,99.90
2019-02-19T07:49:42.788Z,99.90
2019-02-19T07:55:09.572Z,99.90
2019-02-19T08:00:41.999Z,99.90
2019-02-19T08:03:11.143Z,99.90
2019-02-19T08:05:59.371Z,99.90
2019-02-19T08:08:47.603Z,99.90
2019-02-19T08:11:28.773Z,99.90
2019-02-19T08:17:00.695Z,99.90
2019-02-19T08:22:13.740Z,99.90
2019-02-19T08:25:02.123Z,99.90
2019-02-19T08:27:31.318Z,99.90
2019-02-19T08:30:19.494Z,99.90
2019-02-19T08:32:48.709Z,99.90
2019-02-19T08:35:36.956Z,99.90
2019-02-19T08:38:25.255Z,99.90
2019-02-19T08:47:05.004Z,99.90
2019-02-19T08:49:45.720Z,99.90
2019-02-19T08:54:59.184Z,99.90
2019-02-19T08:57:47.345Z,99.90
2019-02-19T09:00:31.755Z,99.90
2019-02-19T09:06:00.619Z,99.90
2019-02-19T09:11:32.987Z,99.90
2019-02-19T09:17:00.682Z,99.90
2019-02-19T09:22:33.356Z,99.90
2019-02-19T09:27:50.922Z,99.90
2019-02-19T09:30:19.997Z,99.90
2019-02-19T09:33:08.267Z,99.90
2019-02-19T09:35:56.561Z,99.90
2019-02-19T09:38:40.819Z,99.90
2019-02-19T09:43:58.621Z,99.90
2019-02-19T09:46:46.878Z,99.90
2019-02-19T09:49:30.599Z,99.90
2019-02-19T09:55:02.170Z,99.90
2019-02-19T10:00:31.284Z,99.90
2019-02-19T10:06:04.467Z,99.90
2019-02-19T10:11:32.572Z,99.90
2019-02-19T10:17:04.630Z,99.90
2019-02-19T10:22:37.288Z,99.90
2019-02-19T10:28:09.508Z,99.90
2019-02-19T10:33:42.489Z,99.90
2019-02-19T10:39:12.103Z,99.90
2019-02-19T10:44:44.589Z,99.90
2019-02-19T10:50:12.988Z,99.90
2019-02-19T10:55:42.393Z,99.90
2019-02-19T10:58:11.622Z,99.90
2019-02-19T11:03:36.778Z,99.90
2019-02-19T11:06:25.242Z,99.90
2019-02-19T11:11:55.950Z,99.90
2019-02-19T11:14:37.233Z,99.90
2019-02-19T11:17:21.492Z,99.90
2019-02-19T11:19:50.725Z,99.90
2019-02-19T11:22:20.007Z,99.90
2019-02-19T11:25:09.402Z,99.90
2019-02-19T11:27:57.718Z,99.90
2019-02-19T11:30:43.221Z,99.90
2019-02-19T11:33:24.418Z,99.90
2019-02-19T11:36:05.822Z,99.90
2019-02-19T11:38:47.771Z,99.90
2019-02-19T11:41:28.559Z,99.90
2019-02-19T11:44:12.629Z,99.90
2019-02-19T11:49:44.535Z,99.90
2019-02-19T11:55:10.179Z,99.90
2019-02-19T12:00:42.170Z,99.90
2019-02-19T12:06:05.996Z,99.90
2019-02-19T12:08:52.715Z,99.90
2019-02-19T12:11:38.233Z,99.90
2019-02-19T12:14:20.096Z,99.90
2019-02-19T12:17:03.832Z,99.90
2019-02-19T12:19:51.714Z,99.90
2019-02-19T12:23:01.110Z,99.90
2019-02-19T12:25:45.991Z,99.90
2019-02-19T12:34:21.435Z,99.90
2019-02-19T12:37:02.895Z,99.90
2019-02-19T12:39:47.134Z,99.90
2019-02-19T12:42:28.419Z,99.90
2019-02-19T12:45:12.188Z,99.90
2019-02-19T12:47:53.842Z,99.90
2019-02-19T12:50:35.403Z,99.90
2019-02-19T12:53:17.648Z,99.90
2019-02-19T12:55:59.981Z,99.90
2019-02-19T12:58:41.469Z,99.90
2019-02-19T13:01:25.259Z,99.90
2019-02-19T13:07:01.078Z,99.90
2019-02-19T13:09:46.427Z,99.90
2019-02-19T13:12:28.389Z,99.90
2019-02-19T13:15:13.175Z,99.90
2019-02-19T13:17:55.318Z,99.90
2019-02-19T13:23:55.311Z,99.90
2019-02-19T13:26:38.859Z,99.90
2019-02-19T13:35:32.298Z,99.90
2019-02-19T13:38:14.303Z,99.90
2019-02-19T13:41:30.806Z,99.90
2019-02-19T13:44:02.789Z,99.90
2019-02-19T13:58:03.486Z,99.90
2019-02-19T14:03:52.528Z,99.90
2019-02-19T14:18:03.601Z,99.90
2019-02-19T14:24:07.108Z,99.90
2019-02-19T14:29:39.383Z,99.90
2019-02-19T14:32:27.698Z,99.90
2019-02-19T14:35:28.998Z,99.90
2019-02-19T14:41:10.655Z,98.80
2019-02-19T14:44:11.148Z,98.50
2019-02-19T14:47:10.814Z,97.80
2019-02-19T14:50:11.063Z,98.50
2019-02-19T14:53:17.463Z,98.80
2019-02-19T14:56:14.289Z,97.80
2019-02-19T14:59:16.960Z,99.00
2019-02-19T15:02:15.719Z,98.30
2019-02-19T15:05:21.606Z,99.60
2019-02-19T15:08:21.669Z,99.40
2019-02-19T15:11:18.380Z,99.90
2019-02-19T15:14:07.536Z,98.70
2019-02-19T15:17:07.389Z,98.80
2019-02-19T15:23:13.122Z,99.30
2019-02-19T15:26:15.665Z,98.70
2019-02-19T15:29:22.055Z,99.90
2019-02-19T15:35:25.185Z,99.90
2019-02-19T15:38:19.391Z,99.90
2019-02-19T15:43:51.118Z,99.90
2019-02-19T15:46:58.372Z,99.90
2019-02-19T15:49:53.150Z,99.90
2019-02-19T15:55:40.587Z,99.90
2019-02-19T16:01:13.134Z,99.90
2019-02-19T16:04:01.769Z,99.90
2019-02-19T16:06:46.192Z,99.90
2019-02-19T16:18:44.141Z,99.90
2019-02-19T16:21:41.553Z,99.90
2019-02-19T16:24:44.435Z,99.90
2019-02-19T16:30:26.945Z,99.90
2019-02-19T16:33:27.288Z,99.90
2019-02-19T16:39:37.207Z,99.90
2019-02-19T16:42:44.605Z,99.90
2019-02-19T16:45:38.949Z,99.90
2019-02-19T16:51:28.291Z,99.90
2019-02-19T16:54:34.414Z,99.90
2019-02-19T17:00:38.059Z,99.90
2019-02-19T17:03:45.322Z,99.90
2019-02-19T17:06:37.802Z,99.90
2019-02-19T17:09:26.734Z,99.90
2019-02-19T17:12:02.430Z,99.90
2019-02-19T17:15:09.677Z,99.90
2019-02-19T17:18:16.875Z,99.90
2019-02-19T17:21:09.110Z,99.90
2019-02-19T17:23:57.112Z,99.90
2019-02-19T17:26:56.825Z,99.90
2019-02-19T17:29:47.226Z,99.90
2019-02-19T17:32:35.384Z,99.90
2019-02-19T17:35:42.599Z,99.90
2019-02-19T17:38:31.519Z,99.90
2019-02-19T17:41:31.469Z,99.90
2019-02-19T17:44:25.051Z,99.90
2019-02-19T17:47:25.096Z,99.90
2019-02-19T17:50:24.660Z,99.90
2019-02-19T17:53:30.840Z,99.90
2019-02-19T17:59:02.278Z,99.90
2019-02-19T18:11:06.062Z,99.90
2019-02-19T18:13:54.495Z,99.90
2019-02-19T18:16:42.728Z,99.90
2019-02-19T18:19:11.988Z,99.90
2019-02-19T18:22:00.387Z,99.90
2019-02-19T18:24:48.700Z,99.90
2019-02-19T18:27:33.139Z,99.90
2019-02-19T18:30:02.347Z,99.90
2019-02-19T18:32:50.586Z,99.90
2019-02-19T18:35:38.782Z,99.90
2019-02-19T18:38:23.091Z,99.90
2019-02-19T18:41:03.749Z,99.90
2019-02-19T18:43:44.884Z,99.90
2019-02-19T18:49:13.507Z,99.90
2019-02-19T18:51:54.349Z,99.90
2019-02-19T18:54:36.554Z,99.90
2019-02-19T18:57:17.757Z,99.90
2019-02-19T18:59:46.701Z,99.90
2019-02-19T19:02:34.859Z,99.90
2019-02-19T19:05:42.238Z,99.90
2019-02-19T19:08:11.892Z,99.90
2019-02-19T19:11:00.115Z,99.90
2019-02-19T19:13:42.199Z,99.90
2019-02-19T19:16:23.063Z,99.90
2019-02-19T19:19:04.696Z,99.90
2019-02-19T19:21:45.248Z,99.90
2019-02-19T19:24:26.621Z,99.90
2019-02-19T19:27:07.762Z,99.90
2019-02-19T19:29:48.267Z,99.90
2019-02-19T19:32:29.688Z,99.90
2019-02-19T19:35:10.778Z,99.90
2019-02-19T19:37:52.138Z,99.90
2019-02-19T19:40:32.762Z,99.90
2019-02-19T19:45:55.286Z,99.90
2019-02-19T19:48:36.786Z,99.90
2019-02-19T19:51:18.301Z,99.90
2019-02-19T19:53:59.697Z,99.90
2019-02-19T19:56:28.912Z,99.90
2019-02-19T19:59:17.975Z,99.90
2019-02-19T20:01:59.447Z,99.90
2019-02-19T20:04:39.984Z,99.90
2019-02-19T20:07:20.564Z,99.90
2019-02-19T20:10:01.283Z,99.90
2019-02-19T20:12:42.693Z,99.90
2019-02-19T20:15:23.860Z,99.90
2019-02-19T20:18:04.885Z,99.90
2019-02-19T20:20:46.373Z,99.90
2019-02-19T20:23:27.640Z,99.90
2019-02-19T20:26:08.465Z,99.90
2019-02-19T20:28:49.794Z,99.90
2019-02-19T20:31:30.621Z,99.90
2019-02-19T20:37:18.469Z,99.90
2019-02-19T20:39:59.284Z,99.90
2019-02-19T20:42:39.909Z,99.90
2019-02-19T20:45:09.121Z,99.90
2019-02-19T20:47:57.443Z,99.90
2019-02-19T20:50:45.797Z,99.90
2019-02-19T20:53:26.485Z,99.90
2019-02-19T20:56:07.070Z,99.90
2019-02-19T20:58:48.016Z,99.90
2019-02-19T21:01:28.934Z,99.90
2019-02-19T21:04:09.683Z,99.90
2019-02-19T21:09:44.018Z,99.90
2019-02-19T21:15:11.361Z,99.90
2019-02-19T21:17:52.279Z,99.90
2019-02-19T21:23:21.445Z,99.90
2019-02-19T21:26:02.006Z,99.90
2019-02-19T21:28:42.504Z,99.90
2019-02-19T21:31:23.879Z,99.90
2019-02-19T21:36:47.947Z,99.90
2019-02-19T21:39:28.412Z,99.90
2019-02-19T21:42:09.579Z,99.90
2019-02-19T21:44:51.033Z,99.90
2019-02-19T21:47:35.476Z,99.90
2019-02-19T21:50:17.139Z,99.90
2019-02-19T21:52:58.350Z,99.90
2019-02-19T21:55:38.983Z,99.90
2019-02-19T21:58:20.755Z,99.90
2019-02-19T22:04:16.464Z,99.90
2019-02-19T22:09:49.027Z,99.90
2019-02-19T22:12:18.149Z,99.90
2019-02-19T22:15:06.506Z,99.90
2019-02-19T22:17:57.886Z,99.90
2019-02-19T22:21:05.148Z,99.90
2019-02-19T22:23:46.186Z,99.90
2019-02-19T22:29:25.210Z,99.90
2019-02-19T22:31:54.345Z,99.90
2019-02-19T22:34:42.559Z,99.90
2019-02-19T22:37:30.803Z,99.90
2019-02-19T22:39:59.954Z,99.90
2019-02-19T22:42:49.533Z,99.90
2019-02-19T22:45:37.894Z,99.90
2019-02-19T22:51:17.005Z,99.90
2019-02-19T22:56:44.537Z,99.90
2019-02-19T22:59:25.298Z,99.90
2019-02-19T23:02:08.911Z,99.90
2019-02-19T23:07:40.640Z,99.90
2019-02-19T23:10:22.048Z,99.90
2019-02-19T23:12:51.169Z,99.90
2019-02-19T23:15:39.383Z,99.90
2019-02-19T23:18:27.576Z,99.90
2019-02-19T23:21:08.990Z,99.90
2019-02-19T23:23:50.560Z,99.90
2019-02-19T23:26:32.123Z,99.90
2019-02-19T23:29:15.710Z,99.90
2019-02-19T23:31:45.698Z,99.90
2019-02-19T23:34:34.037Z,99.90
2019-02-19T23:37:24.310Z,99.90
2019-02-19T23:40:08.447Z,99.90
2019-02-19T23:45:40.401Z,99.90
2019-02-19T23:48:21.320Z,99.90
2019-02-19T23:51:02.809Z,99.90
2019-02-19T23:53:44.274Z,99.90
2019-02-19T23:56:25.229Z,99.90
2019-02-19T23:59:09.717Z,99.90
